sensor_id;sensor_type;location;lat;lon;timestamp;pressure;altitude;pressure_sealevel;temperature
74321;BMP280;62738;45.772;4.804;2023-04-01T00:01:16;99348.66;;;14.77
74321;BMP280;62738;45.772;4.804;2023-04-01T00:03:43;99355.28;;;14.60
74321;BMP280;62738;45.772;4.804;2023-04-01T00:06:14;99356.25;;;13.99
74321;BMP280;62738;45.772;4.804;2023-04-01T00:08:41;99354.75;;;13.15
74321;BMP280;62738;45.772;4.804;2023-04-01T00:11:08;99337.78;;;13.94
74321;BMP280;62738;45.772;4.804;2023-04-01T00:13:34;99334.41;;;13.95
74321;BMP280;62738;45.772;4.804;2023-04-01T00:16:01;99339.38;;;13.97
74321;BMP280;62738;45.772;4.804;2023-04-01T00:18:34;99347.59;;;13.74
74321;BMP280;62738;45.772;4.804;2023-04-01T00:21:02;99354.38;;;12.90
74321;BMP280;62738;45.772;4.804;2023-04-01T00:23:28;99353.28;;;13.14
74321;BMP280;62738;45.772;4.804;2023-04-01T00:25:55;99349.31;;;13.79
74321;BMP280;62738;45.772;4.804;2023-04-01T00:28:21;99352.78;;;13.68
74321;BMP280;62738;45.772;4.804;2023-04-01T00:30:48;99348.47;;;13.76
74321;BMP280;62738;45.772;4.804;2023-04-01T00:33:15;99353.56;;;13.80
74321;BMP280;62738;45.772;4.804;2023-04-01T00:35:43;99354.81;;;13.05
74321;BMP280;62738;45.772;4.804;2023-04-01T00:38:11;99339.25;;;13.12
74321;BMP280;62738;45.772;4.804;2023-04-01T00:40:44;99346.88;;;13.11
74321;BMP280;62738;45.772;4.804;2023-04-01T00:43:18;99343.75;;;13.17
74321;BMP280;62738;45.772;4.804;2023-04-01T00:45:47;99341.34;;;12.92
74321;BMP280;62738;45.772;4.804;2023-04-01T00:48:18;99328.91;;;12.84
74321;BMP280;62738;45.772;4.804;2023-04-01T00:51:13;99319.78;;;13.43
74321;BMP280;62738;45.772;4.804;2023-04-01T00:53:43;99324.59;;;13.42
74321;BMP280;62738;45.772;4.804;2023-04-01T00:58:41;99317.72;;;12.93
74321;BMP280;62738;45.772;4.804;2023-04-01T01:03:44;99308.19;;;12.46
74321;BMP280;62738;45.772;4.804;2023-04-01T01:11:21;99305.69;;;13.10
74321;BMP280;62738;45.772;4.804;2023-04-01T01:14:02;99306.97;;;12.78
74321;BMP280;62738;45.772;4.804;2023-04-01T01:16:34;99311.97;;;12.80
74321;BMP280;62738;45.772;4.804;2023-04-01T01:19:18;99311.84;;;12.49
74321;BMP280;62738;45.772;4.804;2023-04-01T01:38:01;99316.84;;;13.10
74321;BMP280;62738;45.772;4.804;2023-04-01T01:40:28;99306.75;;;13.05
74321;BMP280;62738;45.772;4.804;2023-04-01T01:43:03;99307.03;;;12.30
74321;BMP280;62738;45.772;4.804;2023-04-01T01:45:32;99305.09;;;12.32
74321;BMP280;62738;45.772;4.804;2023-04-01T01:48:02;99294.88;;;13.04
74321;BMP280;62738;45.772;4.804;2023-04-01T01:50:28;99283.66;;;13.14
74321;BMP280;62738;45.772;4.804;2023-04-01T01:53:06;99296.69;;;12.81
74321;BMP280;62738;45.772;4.804;2023-04-01T01:55:36;99291.75;;;12.79
74321;BMP280;62738;45.772;4.804;2023-04-01T01:58:11;99285.59;;;12.61
74321;BMP280;62738;45.772;4.804;2023-04-01T02:00:39;99293.09;;;12.59
74321;BMP280;62738;45.772;4.804;2023-04-01T02:03:06;99290.44;;;12.70
74321;BMP280;62738;45.772;4.804;2023-04-01T02:05:34;99298.38;;;11.97
74321;BMP280;62738;45.772;4.804;2023-04-01T02:10:34;99274.91;;;12.67
74321;BMP280;62738;45.772;4.804;2023-04-01T02:13:07;99263.09;;;12.98
74321;BMP280;62738;45.772;4.804;2023-04-01T02:15:37;99271.44;;;12.98
74321;BMP280;62738;45.772;4.804;2023-04-01T02:18:07;99265.91;;;13.19
74321;BMP280;62738;45.772;4.804;2023-04-01T02:20:35;99269.56;;;13.22
74321;BMP280;62738;45.772;4.804;2023-04-01T02:23:03;99272.84;;;12.78
74321;BMP280;62738;45.772;4.804;2023-04-01T02:25:34;99279.19;;;12.49
74321;BMP280;62738;45.772;4.804;2023-04-01T02:28:04;99268.41;;;12.15
74321;BMP280;62738;45.772;4.804;2023-04-01T02:30:32;99273.22;;;12.43
74321;BMP280;62738;45.772;4.804;2023-04-01T02:33:00;99270.38;;;12.62
74321;BMP280;62738;45.772;4.804;2023-04-01T02:35:27;99286.75;;;12.78
74321;BMP280;62738;45.772;4.804;2023-04-01T02:37:54;99281.09;;;12.47
74321;BMP280;62738;45.772;4.804;2023-04-01T02:40:21;99276.56;;;12.51
74321;BMP280;62738;45.772;4.804;2023-04-01T02:42:48;99272.53;;;12.73
74321;BMP280;62738;45.772;4.804;2023-04-01T02:45:15;99281.34;;;12.80
74321;BMP280;62738;45.772;4.804;2023-04-01T02:47:41;99274.97;;;12.98
74321;BMP280;62738;45.772;4.804;2023-04-01T02:50:08;99273.16;;;13.12
74321;BMP280;62738;45.772;4.804;2023-04-01T02:52:36;99276.03;;;13.45
74321;BMP280;62738;45.772;4.804;2023-04-01T02:55:04;99274.78;;;14.00
74321;BMP280;62738;45.772;4.804;2023-04-01T02:57:30;99279.75;;;13.81
74321;BMP280;62738;45.772;4.804;2023-04-01T02:59:57;99273.00;;;13.63
74321;BMP280;62738;45.772;4.804;2023-04-01T03:02:24;99262.59;;;13.11
74321;BMP280;62738;45.772;4.804;2023-04-01T03:04:51;99275.81;;;13.01
74321;BMP280;62738;45.772;4.804;2023-04-01T03:07:18;99274.06;;;12.96
74321;BMP280;62738;45.772;4.804;2023-04-01T03:09:44;99279.47;;;13.03
74321;BMP280;62738;45.772;4.804;2023-04-01T03:12:11;99277.56;;;13.06
74321;BMP280;62738;45.772;4.804;2023-04-01T03:14:39;99280.78;;;13.33
74321;BMP280;62738;45.772;4.804;2023-04-01T03:17:06;99275.84;;;13.32
74321;BMP280;62738;45.772;4.804;2023-04-01T03:19:32;99271.44;;;12.98
74321;BMP280;62738;45.772;4.804;2023-04-01T03:21:59;99277.88;;;13.00
74321;BMP280;62738;45.772;4.804;2023-04-01T03:24:26;99275.06;;;13.10
74321;BMP280;62738;45.772;4.804;2023-04-01T03:26:52;99273.13;;;12.82
74321;BMP280;62738;45.772;4.804;2023-04-01T03:29:19;99277.31;;;13.23
74321;BMP280;62738;45.772;4.804;2023-04-01T03:31:46;99287.59;;;13.51
74321;BMP280;62738;45.772;4.804;2023-04-01T03:34:12;99286.78;;;13.08
74321;BMP280;62738;45.772;4.804;2023-04-01T03:36:39;99292.97;;;12.97
74321;BMP280;62738;45.772;4.804;2023-04-01T03:39:06;99290.03;;;13.05
74321;BMP280;62738;45.772;4.804;2023-04-01T03:41:32;99284.06;;;13.20
74321;BMP280;62738;45.772;4.804;2023-04-01T03:44:02;99284.19;;;13.53
74321;BMP280;62738;45.772;4.804;2023-04-01T03:46:29;99284.25;;;13.86
74321;BMP280;62738;45.772;4.804;2023-04-01T03:48:55;99292.38;;;13.60
74321;BMP280;62738;45.772;4.804;2023-04-01T03:51:22;99286.56;;;13.47
74321;BMP280;62738;45.772;4.804;2023-04-01T03:53:49;99282.53;;;13.59
74321;BMP280;62738;45.772;4.804;2023-04-01T03:56:15;99260.25;;;13.81
74321;BMP280;62738;45.772;4.804;2023-04-01T03:58:42;99274.44;;;13.85
74321;BMP280;62738;45.772;4.804;2023-04-01T04:01:20;99283.19;;;13.48
74321;BMP280;62738;45.772;4.804;2023-04-01T04:03:49;99283.56;;;13.33
74321;BMP280;62738;45.772;4.804;2023-04-01T04:06:18;99297.00;;;12.75
74321;BMP280;62738;45.772;4.804;2023-04-01T04:08:45;99295.84;;;12.68
74321;BMP280;62738;45.772;4.804;2023-04-01T04:11:12;99306.25;;;12.78
74321;BMP280;62738;45.772;4.804;2023-04-01T04:13:39;99308.03;;;12.25
74321;BMP280;62738;45.772;4.804;2023-04-01T04:16:06;99314.19;;;12.23
74321;BMP280;62738;45.772;4.804;2023-04-01T04:18:33;99315.97;;;12.38
74321;BMP280;62738;45.772;4.804;2023-04-01T04:21:00;99316.81;;;11.92
74321;BMP280;62738;45.772;4.804;2023-04-01T04:23:27;99313.44;;;12.04
74321;BMP280;62738;45.772;4.804;2023-04-01T04:25:58;99317.81;;;12.55
74321;BMP280;62738;45.772;4.804;2023-04-01T04:28:25;99313.16;;;12.48
74321;BMP280;62738;45.772;4.804;2023-04-01T04:30:53;99305.09;;;12.52
74321;BMP280;62738;45.772;4.804;2023-04-01T04:33:21;99320.66;;;12.95
74321;BMP280;62738;45.772;4.804;2023-04-01T04:35:48;99313.53;;;12.83
74321;BMP280;62738;45.772;4.804;2023-04-01T04:38:15;99307.16;;;13.11
74321;BMP280;62738;45.772;4.804;2023-04-01T04:40:42;99305.38;;;12.65
74321;BMP280;62738;45.772;4.804;2023-04-01T04:43:13;99300.38;;;13.14
74321;BMP280;62738;45.772;4.804;2023-04-01T04:45:40;99298.66;;;13.09
74321;BMP280;62738;45.772;4.804;2023-04-01T04:48:11;99302.97;;;12.91
74321;BMP280;62738;45.772;4.804;2023-04-01T04:50:42;99303.38;;;12.37
74321;BMP280;62738;45.772;4.804;2023-04-01T04:53:10;99297.50;;;11.85
74321;BMP280;62738;45.772;4.804;2023-04-01T04:55:37;99307.16;;;11.93
74321;BMP280;62738;45.772;4.804;2023-04-01T04:58:03;99314.31;;;11.97
74321;BMP280;62738;45.772;4.804;2023-04-01T05:00:30;99311.25;;;12.21
74321;BMP280;62738;45.772;4.804;2023-04-01T05:02:57;99308.50;;;12.12
74321;BMP280;62738;45.772;4.804;2023-04-01T05:05:23;99304.38;;;12.32
74321;BMP280;62738;45.772;4.804;2023-04-01T05:07:50;99305.97;;;12.64
74321;BMP280;62738;45.772;4.804;2023-04-01T05:10:17;99292.72;;;13.24
74321;BMP280;62738;45.772;4.804;2023-04-01T05:12:43;99299.69;;;13.04
74321;BMP280;62738;45.772;4.804;2023-04-01T05:15:10;99306.16;;;12.97
74321;BMP280;62738;45.772;4.804;2023-04-01T05:17:37;99303.19;;;12.64
74321;BMP280;62738;45.772;4.804;2023-04-01T05:20:04;99300.28;;;12.33
74321;BMP280;62738;45.772;4.804;2023-04-01T05:22:31;99290.94;;;12.38
74321;BMP280;62738;45.772;4.804;2023-04-01T05:24:58;99289.75;;;12.51
74321;BMP280;62738;45.772;4.804;2023-04-01T05:27:24;99292.53;;;12.31
74321;BMP280;62738;45.772;4.804;2023-04-01T05:29:51;99295.63;;;12.45
74321;BMP280;62738;45.772;4.804;2023-04-01T05:32:18;99290.94;;;12.19
74321;BMP280;62738;45.772;4.804;2023-04-01T05:34:44;99302.88;;;12.69
74321;BMP280;62738;45.772;4.804;2023-04-01T05:37:11;99304.53;;;12.44
74321;BMP280;62738;45.772;4.804;2023-04-01T05:39:38;99310.66;;;12.32
74321;BMP280;62738;45.772;4.804;2023-04-01T05:42:08;99297.53;;;12.14
74321;BMP280;62738;45.772;4.804;2023-04-01T05:44:35;99304.06;;;12.57
74321;BMP280;62738;45.772;4.804;2023-04-01T05:47:03;99306.84;;;12.57
74321;BMP280;62738;45.772;4.804;2023-04-01T05:49:30;99301.28;;;12.57
74321;BMP280;62738;45.772;4.804;2023-04-01T05:51:57;99310.50;;;12.79
74321;BMP280;62738;45.772;4.804;2023-04-01T05:54:24;99307.28;;;12.53
74321;BMP280;62738;45.772;4.804;2023-04-01T05:56:50;99311.84;;;12.58
74321;BMP280;62738;45.772;4.804;2023-04-01T05:59:17;99317.38;;;12.68
74321;BMP280;62738;45.772;4.804;2023-04-01T06:01:44;99322.44;;;12.91
74321;BMP280;62738;45.772;4.804;2023-04-01T06:04:14;99311.34;;;13.22
74321;BMP280;62738;45.772;4.804;2023-04-01T06:06:42;99324.03;;;13.03
74321;BMP280;62738;45.772;4.804;2023-04-01T06:09:16;99325.78;;;13.08
74321;BMP280;62738;45.772;4.804;2023-04-01T06:20:31;99314.84;;;13.22
74321;BMP280;62738;45.772;4.804;2023-04-01T06:32:02;99338.56;;;12.92
74321;BMP280;62738;45.772;4.804;2023-04-01T06:40:46;99337.91;;;12.72
74321;BMP280;62738;45.772;4.804;2023-04-01T06:43:25;99343.09;;;12.97
74321;BMP280;62738;45.772;4.804;2023-04-01T06:54:33;99329.81;;;13.57
74321;BMP280;62738;45.772;4.804;2023-04-01T06:57:08;99337.78;;;13.73
74321;BMP280;62738;45.772;4.804;2023-04-01T06:59:37;99342.72;;;13.53
74321;BMP280;62738;45.772;4.804;2023-04-01T07:04:43;99326.19;;;14.09
74321;BMP280;62738;45.772;4.804;2023-04-01T07:07:37;99336.28;;;14.14
74321;BMP280;62738;45.772;4.804;2023-04-01T07:10:17;99332.91;;;14.16
74321;BMP280;62738;45.772;4.804;2023-04-01T07:12:46;99327.41;;;14.06
74321;BMP280;62738;45.772;4.804;2023-04-01T07:15:22;99327.53;;;14.41
74321;BMP280;62738;45.772;4.804;2023-04-01T07:17:58;99322.28;;;14.80
74321;BMP280;62738;45.772;4.804;2023-04-01T07:20:31;99322.66;;;14.86
74321;BMP280;62738;45.772;4.804;2023-04-01T07:23:00;99329.63;;;14.85
74321;BMP280;62738;45.772;4.804;2023-04-01T07:26:01;99321.84;;;14.83
74321;BMP280;62738;45.772;4.804;2023-04-01T07:28:31;99326.19;;;14.98
74321;BMP280;62738;45.772;4.804;2023-04-01T07:37:00;99342.38;;;15.23
74321;BMP280;62738;45.772;4.804;2023-04-01T07:42:19;99328.91;;;15.19
74321;BMP280;62738;45.772;4.804;2023-04-01T07:48:29;99329.25;;;15.25
74321;BMP280;62738;45.772;4.804;2023-04-01T07:51:15;99337.25;;;15.43
74321;BMP280;62738;45.772;4.804;2023-04-01T07:53:51;99328.91;;;15.19
74321;BMP280;62738;45.772;4.804;2023-04-01T07:56:55;99329.19;;;15.60
74321;BMP280;62738;45.772;4.804;2023-04-01T08:05:00;99348.81;;;15.02
74321;BMP280;62738;45.772;4.804;2023-04-01T08:07:39;99353.16;;;15.05
74321;BMP280;62738;45.772;4.804;2023-04-01T08:11:07;99353.56;;;15.23
74321;BMP280;62738;45.772;4.804;2023-04-01T08:18:46;99368.50;;;15.51
74321;BMP280;62738;45.772;4.804;2023-04-01T08:21:22;99367.75;;;15.62
74321;BMP280;62738;45.772;4.804;2023-04-01T08:23:52;99377.38;;;15.47
74321;BMP280;62738;45.772;4.804;2023-04-01T08:28:57;99385.25;;;15.39
74321;BMP280;62738;45.772;4.804;2023-04-01T08:31:39;99371.91;;;15.49
74321;BMP280;62738;45.772;4.804;2023-04-01T08:34:20;99358.97;;;15.67
74321;BMP280;62738;45.772;4.804;2023-04-01T08:37:15;99351.31;;;16.16
74321;BMP280;62738;45.772;4.804;2023-04-01T08:39:48;99344.47;;;16.19
74321;BMP280;62738;45.772;4.804;2023-04-01T08:47:56;99354.31;;;15.95
74321;BMP280;62738;45.772;4.804;2023-04-01T08:50:43;99358.59;;;15.85
74321;BMP280;62738;45.772;4.804;2023-04-01T08:56:23;99359.06;;;15.81
74321;BMP280;62738;45.772;4.804;2023-04-01T09:02:30;99359.81;;;15.70
74321;BMP280;62738;45.772;4.804;2023-04-01T09:10:54;99348.53;;;15.80
74321;BMP280;62738;45.772;4.804;2023-04-01T09:16:37;99343.97;;;16.23
74321;BMP280;62738;45.772;4.804;2023-04-01T09:27:28;99342.91;;;16.42
74321;BMP280;62738;45.772;4.804;2023-04-01T09:35:27;99341.34;;;16.64
74321;BMP280;62738;45.772;4.804;2023-04-01T09:40:57;99340.53;;;16.50
74321;BMP280;62738;45.772;4.804;2023-04-01T10:36:48;99282.78;;;15.92
74321;BMP280;62738;45.772;4.804;2023-04-01T10:43:49;99258.31;;;15.67
74321;BMP280;62738;45.772;4.804;2023-04-01T10:49:10;99247.34;;;16.88
74321;BMP280;62738;45.772;4.804;2023-04-01T10:57:54;99241.03;;;17.15
74321;BMP280;62738;45.772;4.804;2023-04-01T11:00:41;99249.47;;;17.44
74321;BMP280;62738;45.772;4.804;2023-04-01T11:14:13;99220.88;;;18.06
74321;BMP280;62738;45.772;4.804;2023-04-01T11:17:06;99228.00;;;18.10
74321;BMP280;62738;45.772;4.804;2023-04-01T11:22:47;99211.44;;;17.84
74321;BMP280;62738;45.772;4.804;2023-04-01T11:25:52;99213.34;;;17.95
74321;BMP280;62738;45.772;4.804;2023-04-01T11:31:34;99206.56;;;17.71
74321;BMP280;62738;45.772;4.804;2023-04-01T11:37:23;99198.50;;;17.05
74321;BMP280;62738;45.772;4.804;2023-04-01T11:59:27;99152.84;;;18.39
74321;BMP280;62738;45.772;4.804;2023-04-01T12:04:51;99138.31;;;18.27
74321;BMP280;62738;45.772;4.804;2023-04-01T12:16:16;99110.50;;;18.84
74321;BMP280;62738;45.772;4.804;2023-04-01T12:18:53;99100.25;;;19.09
74321;BMP280;62738;45.772;4.804;2023-04-01T12:21:45;99098.94;;;19.12
74321;BMP280;62738;45.772;4.804;2023-04-01T12:35:58;99059.84;;;18.82
74321;BMP280;62738;45.772;4.804;2023-04-01T12:41:22;99062.81;;;18.69
74321;BMP280;62738;45.772;4.804;2023-04-01T12:49:44;99039.91;;;18.94
74321;BMP280;62738;45.772;4.804;2023-04-01T12:55:14;99030.94;;;19.35
74321;BMP280;62738;45.772;4.804;2023-04-01T13:08:52;99028.97;;;19.02
74321;BMP280;62738;45.772;4.804;2023-04-01T13:20:07;99034.41;;;18.27
74321;BMP280;62738;45.772;4.804;2023-04-01T13:22:51;99026.59;;;17.92
74321;BMP280;62738;45.772;4.804;2023-04-01T13:37:29;99037.09;;;17.29
74321;BMP280;62738;45.772;4.804;2023-04-01T14:00:31;99205.88;;;10.29
74321;BMP280;62738;45.772;4.804;2023-04-01T14:03:28;99192.78;;;9.78
74321;BMP280;62738;45.772;4.804;2023-04-01T14:12:11;99184.13;;;10.09
74321;BMP280;62738;45.772;4.804;2023-04-01T14:15:15;99177.38;;;10.02
74321;BMP280;62738;45.772;4.804;2023-04-01T14:23:13;99156.69;;;10.30
74321;BMP280;62738;45.772;4.804;2023-04-01T14:29:18;99158.16;;;10.31
74321;BMP280;62738;45.772;4.804;2023-04-01T14:32:06;99138.06;;;10.13
74321;BMP280;62738;45.772;4.804;2023-04-01T14:43:27;99133.22;;;10.67
74321;BMP280;62738;45.772;4.804;2023-04-01T14:51:36;99130.28;;;12.08
74321;BMP280;62738;45.772;4.804;2023-04-01T14:59:14;99144.44;;;13.35
74321;BMP280;62738;45.772;4.804;2023-04-01T15:01:59;99141.41;;;13.64
74321;BMP280;62738;45.772;4.804;2023-04-01T15:04:54;99139.00;;;14.26
74321;BMP280;62738;45.772;4.804;2023-04-01T15:12:47;99138.59;;;14.09
74321;BMP280;62738;45.772;4.804;2023-04-01T15:29:13;99134.41;;;13.42
74321;BMP280;62738;45.772;4.804;2023-04-01T15:31:52;99129.22;;;12.84
74321;BMP280;62738;45.772;4.804;2023-04-01T15:34:49;99136.91;;;12.74
74321;BMP280;62738;45.772;4.804;2023-04-01T15:45:18;99153.59;;;13.05
74321;BMP280;62738;45.772;4.804;2023-04-01T15:50:51;99142.13;;;13.10
74321;BMP280;62738;45.772;4.804;2023-04-01T15:55:59;99132.03;;;13.59
74321;BMP280;62738;45.772;4.804;2023-04-01T15:58:43;99124.25;;;13.91
74321;BMP280;62738;45.772;4.804;2023-04-01T16:01:32;99125.44;;;13.76
74321;BMP280;62738;45.772;4.804;2023-04-01T16:07:01;99118.72;;;14.14
74321;BMP280;62738;45.772;4.804;2023-04-01T16:21:05;99120.78;;;14.83
74321;BMP280;62738;45.772;4.804;2023-04-01T16:26:07;99132.53;;;14.82
74321;BMP280;62738;45.772;4.804;2023-04-01T16:28:56;99129.38;;;14.76
74321;BMP280;62738;45.772;4.804;2023-04-01T16:34:11;99120.66;;;14.70
74321;BMP280;62738;45.772;4.804;2023-04-01T16:36:51;99116.66;;;14.73
74321;BMP280;62738;45.772;4.804;2023-04-01T16:42:31;99119.69;;;14.77
74321;BMP280;62738;45.772;4.804;2023-04-01T16:58:35;99127.81;;;14.15
74321;BMP280;62738;45.772;4.804;2023-04-01T17:01:12;99126.75;;;14.31
74321;BMP280;62738;45.772;4.804;2023-04-01T17:03:41;99128.69;;;14.40
74321;BMP280;62738;45.772;4.804;2023-04-01T17:14:30;99138.00;;;14.68
74321;BMP280;62738;45.772;4.804;2023-04-01T17:20:05;99132.94;;;15.25
74321;BMP280;62738;45.772;4.804;2023-04-01T17:22:52;99128.84;;;15.40
74321;BMP280;62738;45.772;4.804;2023-04-01T17:31:37;99141.38;;;14.09
74321;BMP280;62738;45.772;4.804;2023-04-01T17:37:26;99151.97;;;13.02
74321;BMP280;62738;45.772;4.804;2023-04-01T17:42:34;99147.44;;;13.06
74321;BMP280;62738;45.772;4.804;2023-04-01T17:48:08;99149.81;;;12.39
74321;BMP280;62738;45.772;4.804;2023-04-01T17:50:58;99132.50;;;12.40
74321;BMP280;62738;45.772;4.804;2023-04-01T17:53:46;99139.69;;;12.33
74321;BMP280;62738;45.772;4.804;2023-04-01T18:05:03;99157.19;;;12.15
74321;BMP280;62738;45.772;4.804;2023-04-01T18:07:38;99156.63;;;12.47
74321;BMP280;62738;45.772;4.804;2023-04-01T18:10:25;99164.28;;;12.78
74321;BMP280;62738;45.772;4.804;2023-04-01T18:18:58;99183.81;;;13.41
74321;BMP280;62738;45.772;4.804;2023-04-01T18:21:35;99176.69;;;13.38
74321;BMP280;62738;45.772;4.804;2023-04-01T18:24:15;99180.13;;;13.06
74321;BMP280;62738;45.772;4.804;2023-04-01T18:26:49;99191.19;;;12.85
74321;BMP280;62738;45.772;4.804;2023-04-01T18:31:48;99198.75;;;11.84
74321;BMP280;62738;45.772;4.804;2023-04-01T18:37:01;99219.25;;;11.88
74321;BMP280;62738;45.772;4.804;2023-04-01T18:39:41;99226.38;;;11.63
74321;BMP280;62738;45.772;4.804;2023-04-01T18:44:46;99224.94;;;11.90
74321;BMP280;62738;45.772;4.804;2023-04-01T18:50:01;99220.69;;;11.70
74321;BMP280;62738;45.772;4.804;2023-04-01T18:52:37;99224.66;;;11.67
74321;BMP280;62738;45.772;4.804;2023-04-01T18:55:29;99228.59;;;11.83
74321;BMP280;62738;45.772;4.804;2023-04-01T18:58:16;99236.75;;;12.29
74321;BMP280;62738;45.772;4.804;2023-04-01T19:03:36;99244.13;;;12.75
74321;BMP280;62738;45.772;4.804;2023-04-01T19:06:27;99256.19;;;12.99
74321;BMP280;62738;45.772;4.804;2023-04-01T19:09:11;99250.22;;;13.24
74321;BMP280;62738;45.772;4.804;2023-04-01T19:27:48;99277.75;;;12.19
74321;BMP280;62738;45.772;4.804;2023-04-01T19:30:32;99292.25;;;11.33
74321;BMP280;62738;45.772;4.804;2023-04-01T19:35:41;99277.00;;;11.71
74321;BMP280;62738;45.772;4.804;2023-04-01T19:38:14;99284.06;;;11.81
74321;BMP280;62738;45.772;4.804;2023-04-01T19:43:32;99287.13;;;12.24
74321;BMP280;62738;45.772;4.804;2023-04-01T19:59:59;99307.44;;;12.65
74321;BMP280;62738;45.772;4.804;2023-04-01T20:02:38;99303.78;;;13.12
74321;BMP280;62738;45.772;4.804;2023-04-01T20:05:30;99305.44;;;12.87
74321;BMP280;62738;45.772;4.804;2023-04-01T20:11:47;99314.41;;;12.85
74321;BMP280;62738;45.772;4.804;2023-04-01T20:16:20;99305.25;;;12.06
74321;BMP280;62738;45.772;4.804;2023-04-01T20:18:50;99301.22;;;11.61
74321;BMP280;62738;45.772;4.804;2023-04-01T20:21:27;99312.81;;;11.57
74321;BMP280;62738;45.772;4.804;2023-04-01T20:26:45;99305.44;;;11.42
74321;BMP280;62738;45.772;4.804;2023-04-01T20:32:09;99311.50;;;11.58
74321;BMP280;62738;45.772;4.804;2023-04-01T20:34:49;99311.81;;;11.91
74321;BMP280;62738;45.772;4.804;2023-04-01T20:45:55;99322.41;;;12.50
74321;BMP280;62738;45.772;4.804;2023-04-01T20:51:23;99322.97;;;12.58
74321;BMP280;62738;45.772;4.804;2023-04-01T20:59:52;99334.38;;;11.95
74321;BMP280;62738;45.772;4.804;2023-04-01T21:02:26;99330.22;;;11.31
74321;BMP280;62738;45.772;4.804;2023-04-01T21:05:16;99327.50;;;11.86
74321;BMP280;62738;45.772;4.804;2023-04-01T21:08:00;99326.88;;;11.59
74321;BMP280;62738;45.772;4.804;2023-04-01T21:16:47;99326.03;;;12.62
74321;BMP280;62738;45.772;4.804;2023-04-01T21:19:38;99330.44;;;12.27
74321;BMP280;62738;45.772;4.804;2023-04-01T21:27:42;99322.41;;;12.31
74321;BMP280;62738;45.772;4.804;2023-04-01T21:36:08;99314.31;;;12.25
74321;BMP280;62738;45.772;4.804;2023-04-01T21:50:04;99321.06;;;12.32
74321;BMP280;62738;45.772;4.804;2023-04-01T22:04:05;99327.69;;;11.62
74321;BMP280;62738;45.772;4.804;2023-04-01T22:18:39;99329.47;;;11.57
74321;BMP280;62738;45.772;4.804;2023-04-01T22:24:24;99334.72;;;11.53
74321;BMP280;62738;45.772;4.804;2023-04-01T22:27:01;99340.59;;;11.67
74321;BMP280;62738;45.772;4.804;2023-04-01T22:29:45;99344.03;;;11.94
74321;BMP280;62738;45.772;4.804;2023-04-01T22:32:17;99341.69;;;12.00
74321;BMP280;62738;45.772;4.804;2023-04-01T22:34:49;99334.78;;;11.91
74321;BMP280;62738;45.772;4.804;2023-04-01T22:42:46;99334.09;;;12.29
74321;BMP280;62738;45.772;4.804;2023-04-01T22:45:39;99338.47;;;11.94
74321;BMP280;62738;45.772;4.804;2023-04-01T22:48:46;99333.56;;;11.56
74321;BMP280;62738;45.772;4.804;2023-04-01T22:51:22;99329.38;;;11.28
74321;BMP280;62738;45.772;4.804;2023-04-01T22:56:49;99339.19;;;11.29
74321;BMP280;62738;45.772;4.804;2023-04-01T23:01:59;99352.09;;;11.17
74321;BMP280;62738;45.772;4.804;2023-04-01T23:04:31;99341.09;;;11.36
74321;BMP280;62738;45.772;4.804;2023-04-01T23:07:02;99339.66;;;11.45
74321;BMP280;62738;45.772;4.804;2023-04-01T23:09:33;99343.44;;;11.40
74321;BMP280;62738;45.772;4.804;2023-04-01T23:12:08;99346.75;;;11.65
74321;BMP280;62738;45.772;4.804;2023-04-01T23:14:43;99348.94;;;11.67
74321;BMP280;62738;45.772;4.804;2023-04-01T23:17:34;99350.44;;;11.41
74321;BMP280;62738;45.772;4.804;2023-04-01T23:28:19;99342.91;;;11.51
74321;BMP280;62738;45.772;4.804;2023-04-01T23:30:51;99358.97;;;11.89
74321;BMP280;62738;45.772;4.804;2023-04-01T23:35:48;99353.84;;;11.49
74321;BMP280;62738;45.772;4.804;2023-04-01T23:38:16;99346.41;;;11.61
74321;BMP280;62738;45.772;4.804;2023-04-01T23:40:43;99361.19;;;11.54
74321;BMP280;62738;45.772;4.804;2023-04-01T23:43:33;99354.69;;;11.42
74321;BMP280;62738;45.772;4.804;2023-04-01T23:46:02;99363.53;;;11.58
74321;BMP280;62738;45.772;4.804;2023-04-01T23:48:35;99357.69;;;11.63
74321;BMP280;62738;45.772;4.804;2023-04-01T23:51:03;99364.31;;;11.77
74321;BMP280;62738;45.772;4.804;2023-04-01T23:53:33;99357.78;;;11.46
74321;BMP280;62738;45.772;4.804;2023-04-01T23:56:02;99369.31;;;11.16
74321;BMP280;62738;45.772;4.804;2023-04-01T23:58:43;99360.31;;;11.25
